sensor_id;sensor_type;location;lat;lon;timestamp;temperature;humidity
9371;DHT22;4725;48.384;8.984;2023-02-15T00:02:01;-2.10;99.90
9371;DHT22;4725;48.384;8.984;2023-02-15T00:04:28;-2.10;99.90
9371;DHT22;4725;48.384;8.984;2023-02-15T00:07:14;-2.60;99.90
9371;DHT22;4725;48.384;8.984;2023-02-15T00:09:41;-2.60;99.90
9371;DHT22;4725;48.384;8.984;2023-02-15T00:12:09;-2.60;99.90
9371;DHT22;4725;48.384;8.984;2023-02-15T00:14:36;-2.70;99.90
9371;DHT22;4725;48.384;8.984;2023-02-15T00:17:03;-2.70;99.90
9371;DHT22;4725;48.384;8.984;2023-02-15T00:19:30;-2.70;99.90
9371;DHT22;4725;48.384;8.984;2023-02-15T00:21:57;-2.70;99.90
9371;DHT22;4725;48.384;8.984;2023-02-15T00:24:26;-2.70;99.90
9371;DHT22;4725;48.384;8.984;2023-02-15T00:26:53;-2.70;99.90
9371;DHT22;4725;48.384;8.984;2023-02-15T00:29:20;-2.00;99.90
9371;DHT22;4725;48.384;8.984;2023-02-15T00:31:47;-2.60;99.90
9371;DHT22;4725;48.384;8.984;2023-02-15T00:34:16;-2.60;99.90
9371;DHT22;4725;48.384;8.984;2023-02-15T00:36:43;-2.80;99.90
9371;DHT22;4725;48.384;8.984;2023-02-15T00:39:11;-2.80;99.90
9371;DHT22;4725;48.384;8.984;2023-02-15T00:41:40;-2.80;99.90
9371;DHT22;4725;48.384;8.984;2023-02-15T00:44:07;-2.70;99.90
9371;DHT22;4725;48.384;8.984;2023-02-15T00:46:35;-2.90;99.90
9371;DHT22;4725;48.384;8.984;2023-02-15T00:49:02;-2.90;99.90
9371;DHT22;4725;48.384;8.984;2023-02-15T00:51:29;-3.00;99.90
9371;DHT22;4725;48.384;8.984;2023-02-15T00:53:56;-3.10;99.90
9371;DHT22;4725;48.384;8.984;2023-02-15T00:56:23;-3.20;99.90
9371;DHT22;4725;48.384;8.984;2023-02-15T00:58:52;-3.20;99.90
9371;DHT22;4725;48.384;8.984;2023-02-15T01:01:20;-3.30;99.90
9371;DHT22;4725;48.384;8.984;2023-02-15T01:03:47;-3.30;99.90
9371;DHT22;4725;48.384;8.984;2023-02-15T01:06:15;-3.40;99.90
9371;DHT22;4725;48.384;8.984;2023-02-15T01:08:43;-3.20;99.90
9371;DHT22;4725;48.384;8.984;2023-02-15T01:11:11;-2.80;99.90
9371;DHT22;4725;48.384;8.984;2023-02-15T01:13:39;-3.20;99.90
9371;DHT22;4725;48.384;8.984;2023-02-15T01:16:08;-3.00;99.90
9371;DHT22;4725;48.384;8.984;2023-02-15T01:18:35;-3.00;99.90
9371;DHT22;4725;48.384;8.984;2023-02-15T01:21:09;-2.70;99.90
9371;DHT22;4725;48.384;8.984;2023-02-15T01:23:36;-2.70;99.90
9371;DHT22;4725;48.384;8.984;2023-02-15T01:26:03;-2.60;99.90
9371;DHT22;4725;48.384;8.984;2023-02-15T01:28:31;0.40;99.90
9371;DHT22;4725;48.384;8.984;2023-02-15T01:30:58;-2.50;99.90
9371;DHT22;4725;48.384;8.984;2023-02-15T01:33:26;-2.60;99.90
9371;DHT22;4725;48.384;8.984;2023-02-15T01:35:56;-2.50;99.90
9371;DHT22;4725;48.384;8.984;2023-02-15T01:38:23;-2.60;99.90
9371;DHT22;4725;48.384;8.984;2023-02-15T01:40:51;-2.60;99.90
9371;DHT22;4725;48.384;8.984;2023-02-15T01:43:18;-2.80;99.90
9371;DHT22;4725;48.384;8.984;2023-02-15T01:45:47;-2.80;99.90
9371;DHT22;4725;48.384;8.984;2023-02-15T01:48:20;-2.70;99.90
9371;DHT22;4725;48.384;8.984;2023-02-15T01:50:53;-2.70;99.90
9371;DHT22;4725;48.384;8.984;2023-02-15T01:53:24;-2.60;99.90
9371;DHT22;4725;48.384;8.984;2023-02-15T01:55:55;-2.60;99.90
9371;DHT22;4725;48.384;8.984;2023-02-15T01:58:25;-2.70;99.90
9371;DHT22;4725;48.384;8.984;2023-02-15T02:00:52;-2.60;99.90
9371;DHT22;4725;48.384;8.984;2023-02-15T02:03:27;-2.60;99.90
9371;DHT22;4725;48.384;8.984;2023-02-15T02:05:58;-2.70;99.90
9371;DHT22;4725;48.384;8.984;2023-02-15T02:08:25;-2.80;99.90
9371;DHT22;4725;48.384;8.984;2023-02-15T02:10:52;-2.90;99.90
9371;DHT22;4725;48.384;8.984;2023-02-15T02:13:19;-3.00;99.90
9371;DHT22;4725;48.384;8.984;2023-02-15T02:15:54;-0.20;99.90
9371;DHT22;4725;48.384;8.984;2023-02-15T02:18:33;-3.20;99.90
9371;DHT22;4725;48.384;8.984;2023-02-15T02:21:30;-3.30;99.90
9371;DHT22;4725;48.384;8.984;2023-02-15T02:24:41;-3.30;99.90
9371;DHT22;4725;48.384;8.984;2023-02-15T02:27:23;-3.40;99.90
9371;DHT22;4725;48.384;8.984;2023-02-15T02:33:13;-3.10;99.90
9371;DHT22;4725;48.384;8.984;2023-02-15T02:35:48;-3.00;99.90
9371;DHT22;4725;48.384;8.984;2023-02-15T02:38:23;-3.20;99.90
9371;DHT22;4725;48.384;8.984;2023-02-15T02:41:00;-3.20;99.90
9371;DHT22;4725;48.384;8.984;2023-02-15T02:43:35;-3.20;99.90
9371;DHT22;4725;48.384;8.984;2023-02-15T02:46:09;-3.10;99.90
9371;DHT22;4725;48.384;8.984;2023-02-15T02:48:40;-2.80;99.90
9371;DHT22;4725;48.384;8.984;2023-02-15T02:51:07;-2.80;99.90
9371;DHT22;4725;48.384;8.984;2023-02-15T02:53:34;-3.10;99.90
9371;DHT22;4725;48.384;8.984;2023-02-15T02:56:05;-3.10;99.90
9371;DHT22;4725;48.384;8.984;2023-02-15T02:58:39;-3.30;99.90
9371;DHT22;4725;48.384;8.984;2023-02-15T03:01:12;-3.50;99.90
9371;DHT22;4725;48.384;8.984;2023-02-15T03:03:44;-3.60;99.90
9371;DHT22;4725;48.384;8.984;2023-02-15T03:06:15;-3.60;99.90
9371;DHT22;4725;48.384;8.984;2023-02-15T03:08:48;-3.60;99.90
9371;DHT22;4725;48.384;8.984;2023-02-15T03:11:16;-3.70;99.90
9371;DHT22;4725;48.384;8.984;2023-02-15T03:13:43;-3.60;99.90
9371;DHT22;4725;48.384;8.984;2023-02-15T03:16:12;-3.50;99.90
9371;DHT22;4725;48.384;8.984;2023-02-15T03:18:56;-3.50;99.90
9371;DHT22;4725;48.384;8.984;2023-02-15T03:21:31;-3.60;99.90
9371;DHT22;4725;48.384;8.984;2023-02-15T03:24:03;-3.80;99.90
9371;DHT22;4725;48.384;8.984;2023-02-15T03:26:33;-4.00;99.90
9371;DHT22;4725;48.384;8.984;2023-02-15T03:29:01;-4.00;99.90
9371;DHT22;4725;48.384;8.984;2023-02-15T03:31:32;-4.00;99.90
9371;DHT22;4725;48.384;8.984;2023-02-15T03:34:04;-4.10;99.90
9371;DHT22;4725;48.384;8.984;2023-02-15T03:36:37;-4.10;99.90
9371;DHT22;4725;48.384;8.984;2023-02-15T03:39:10;-4.10;99.90
9371;DHT22;4725;48.384;8.984;2023-02-15T03:41:42;-4.10;99.90
9371;DHT22;4725;48.384;8.984;2023-02-15T03:44:17;-4.00;99.90
9371;DHT22;4725;48.384;8.984;2023-02-15T03:46:48;-3.90;99.90
9371;DHT22;4725;48.384;8.984;2023-02-15T03:49:22;-3.80;99.90
9371;DHT22;4725;48.384;8.984;2023-02-15T03:51:52;-3.90;99.90
9371;DHT22;4725;48.384;8.984;2023-02-15T03:54:22;-4.00;99.90
9371;DHT22;4725;48.384;8.984;2023-02-15T03:57:11;-4.20;99.90
9371;DHT22;4725;48.384;8.984;2023-02-15T03:59:57;-4.30;99.90
9371;DHT22;4725;48.384;8.984;2023-02-15T04:02:58;-4.30;99.90
9371;DHT22;4725;48.384;8.984;2023-02-15T04:05:28;-4.50;99.90
9371;DHT22;4725;48.384;8.984;2023-02-15T04:07:55;-4.50;99.90
9371;DHT22;4725;48.384;8.984;2023-02-15T04:10:22;-4.50;99.90
9371;DHT22;4725;48.384;8.984;2023-02-15T04:13:06;-4.60;99.90
9371;DHT22;4725;48.384;8.984;2023-02-15T04:15:33;-4.40;99.90
9371;DHT22;4725;48.384;8.984;2023-02-15T04:20:46;-3.70;99.90
9371;DHT22;4725;48.384;8.984;2023-02-15T04:23:31;-3.50;99.90
9371;DHT22;4725;48.384;8.984;2023-02-15T04:26:15;-3.00;99.90
9371;DHT22;4725;48.384;8.984;2023-02-15T04:28:42;-3.00;99.90
9371;DHT22;4725;48.384;8.984;2023-02-15T04:31:09;-3.00;99.90
9371;DHT22;4725;48.384;8.984;2023-02-15T04:33:36;-3.10;99.90
9371;DHT22;4725;48.384;8.984;2023-02-15T04:36:05;-2.90;99.90
9371;DHT22;4725;48.384;8.984;2023-02-15T04:38:32;-3.60;99.90
9371;DHT22;4725;48.384;8.984;2023-02-15T04:40:59;-3.90;99.90
9371;DHT22;4725;48.384;8.984;2023-02-15T04:43:25;-3.90;99.90
9371;DHT22;4725;48.384;8.984;2023-02-15T04:45:52;-4.10;99.90
9371;DHT22;4725;48.384;8.984;2023-02-15T04:48:19;-4.20;99.90
9371;DHT22;4725;48.384;8.984;2023-02-15T04:50:46;-4.10;99.90
9371;DHT22;4725;48.384;8.984;2023-02-15T04:53:14;-3.90;99.90
9371;DHT22;4725;48.384;8.984;2023-02-15T04:55:42;-3.80;99.90
9371;DHT22;4725;48.384;8.984;2023-02-15T04:58:09;-3.90;99.90
9371;DHT22;4725;48.384;8.984;2023-02-15T05:00:36;-4.00;99.90
9371;DHT22;4725;48.384;8.984;2023-02-15T05:03:03;-3.90;99.90
9371;DHT22;4725;48.384;8.984;2023-02-15T05:05:30;-4.00;99.90
9371;DHT22;4725;48.384;8.984;2023-02-15T05:07:57;-4.00;99.90
9371;DHT22;4725;48.384;8.984;2023-02-15T05:10:26;-4.00;99.90
9371;DHT22;4725;48.384;8.984;2023-02-15T05:12:52;-4.00;99.90
9371;DHT22;4725;48.384;8.984;2023-02-15T05:15:19;-3.90;99.90
9371;DHT22;4725;48.384;8.984;2023-02-15T05:17:46;-3.50;99.90
9371;DHT22;4725;48.384;8.984;2023-02-15T05:20:13;-3.40;99.90
9371;DHT22;4725;48.384;8.984;2023-02-15T05:22:40;-3.40;99.90
9371;DHT22;4725;48.384;8.984;2023-02-15T05:25:08;-3.60;99.90
9371;DHT22;4725;48.384;8.984;2023-02-15T05:27:54;-3.70;99.90
9371;DHT22;4725;48.384;8.984;2023-02-15T05:33:06;-3.90;99.90
9371;DHT22;4725;48.384;8.984;2023-02-15T05:35:35;-4.20;99.90
9371;DHT22;4725;48.384;8.984;2023-02-15T05:38:02;-4.20;99.90
9371;DHT22;4725;48.384;8.984;2023-02-15T05:40:29;-4.30;99.90
9371;DHT22;4725;48.384;8.984;2023-02-15T05:42:57;-4.20;99.90
9371;DHT22;4725;48.384;8.984;2023-02-15T05:45:24;-4.30;99.90
9371;DHT22;4725;48.384;8.984;2023-02-15T05:47:51;-4.00;99.90
9371;DHT22;4725;48.384;8.984;2023-02-15T05:50:18;-3.80;99.90
9371;DHT22;4725;48.384;8.984;2023-02-15T05:52:45;-3.40;99.90
9371;DHT22;4725;48.384;8.984;2023-02-15T05:55:12;-3.40;99.90
9371;DHT22;4725;48.384;8.984;2023-02-15T05:57:39;-3.50;99.90
9371;DHT22;4725;48.384;8.984;2023-02-15T06:00:08;-3.40;99.90
9371;DHT22;4725;48.384;8.984;2023-02-15T06:02:36;-3.40;99.90
9371;DHT22;4725;48.384;8.984;2023-02-15T06:05:04;-3.40;99.90
9371;DHT22;4725;48.384;8.984;2023-02-15T06:07:31;-3.60;99.90
9371;DHT22;4725;48.384;8.984;2023-02-15T06:09:58;-3.70;99.90
9371;DHT22;4725;48.384;8.984;2023-02-15T06:12:25;-3.80;99.90
9371;DHT22;4725;48.384;8.984;2023-02-15T06:14:52;-3.90;99.90
9371;DHT22;4725;48.384;8.984;2023-02-15T06:17:20;-4.20;99.90
9371;DHT22;4725;48.384;8.984;2023-02-15T06:19:47;-4.20;99.90
9371;DHT22;4725;48.384;8.984;2023-02-15T06:22:14;-4.20;99.90
9371;DHT22;4725;48.384;8.984;2023-02-15T06:24:41;-3.70;99.90
9371;DHT22;4725;48.384;8.984;2023-02-15T06:27:09;-4.40;99.90
9371;DHT22;4725;48.384;8.984;2023-02-15T06:29:36;-4.40;99.90
9371;DHT22;4725;48.384;8.984;2023-02-15T06:32:03;-4.40;99.90
9371;DHT22;4725;48.384;8.984;2023-02-15T06:34:31;-4.20;99.90
9371;DHT22;4725;48.384;8.984;2023-02-15T06:36:58;-4.10;99.90
9371;DHT22;4725;48.384;8.984;2023-02-15T06:39:25;-4.10;99.90
9371;DHT22;4725;48.384;8.984;2023-02-15T06:41:52;-4.10;99.90
9371;DHT22;4725;48.384;8.984;2023-02-15T06:44:19;-4.00;99.90
9371;DHT22;4725;48.384;8.984;2023-02-15T06:46:46;-3.70;99.90
9371;DHT22;4725;48.384;8.984;2023-02-15T06:49:13;-3.70;99.90
9371;DHT22;4725;48.384;8.984;2023-02-15T06:51:41;-3.30;99.90
9371;DHT22;4725;48.384;8.984;2023-02-15T06:54:08;-3.00;99.90
9371;DHT22;4725;48.384;8.984;2023-02-15T06:56:35;-2.90;99.90
9371;DHT22;4725;48.384;8.984;2023-02-15T06:59:02;-2.90;99.90
9371;DHT22;4725;48.384;8.984;2023-02-15T07:01:29;-2.90;99.90
9371;DHT22;4725;48.384;8.984;2023-02-15T07:03:55;-2.90;99.90
9371;DHT22;4725;48.384;8.984;2023-02-15T07:06:22;-3.00;99.90
9371;DHT22;4725;48.384;8.984;2023-02-15T07:08:51;-3.00;99.90
9371;DHT22;4725;48.384;8.984;2023-02-15T07:11:17;-3.00;99.90
9371;DHT22;4725;48.384;8.984;2023-02-15T07:14:02;-3.00;99.90
9371;DHT22;4725;48.384;8.984;2023-02-15T07:16:29;-3.00;99.90
9371;DHT22;4725;48.384;8.984;2023-02-15T07:18:55;-3.00;99.90
9371;DHT22;4725;48.384;8.984;2023-02-15T07:21:22;-3.00;99.90
9371;DHT22;4725;48.384;8.984;2023-02-15T07:23:50;-3.00;99.90
9371;DHT22;4725;48.384;8.984;2023-02-15T07:26:18;-2.90;99.90
9371;DHT22;4725;48.384;8.984;2023-02-15T07:28:45;-2.80;99.90
9371;DHT22;4725;48.384;8.984;2023-02-15T07:31:11;-2.80;99.90
9371;DHT22;4725;48.384;8.984;2023-02-15T07:33:38;-2.60;99.90
9371;DHT22;4725;48.384;8.984;2023-02-15T07:36:06;-2.40;99.90
9371;DHT22;4725;48.384;8.984;2023-02-15T07:38:36;-2.30;99.90
9371;DHT22;4725;48.384;8.984;2023-02-15T07:41:06;-2.00;99.90
9371;DHT22;4725;48.384;8.984;2023-02-15T07:46:02;-1.70;99.90
9371;DHT22;4725;48.384;8.984;2023-02-15T07:48:30;-1.50;99.90
9371;DHT22;4725;48.384;8.984;2023-02-15T07:50:58;-1.30;99.90
9371;DHT22;4725;48.384;8.984;2023-02-15T07:53:25;-1.10;99.90
9371;DHT22;4725;48.384;8.984;2023-02-15T07:55:52;-1.00;99.90
9371;DHT22;4725;48.384;8.984;2023-02-15T07:58:21;-0.90;99.90
9371;DHT22;4725;48.384;8.984;2023-02-15T08:01:08;-0.80;99.90
9371;DHT22;4725;48.384;8.984;2023-02-15T08:03:35;-0.60;99.90
9371;DHT22;4725;48.384;8.984;2023-02-15T08:06:02;-0.50;99.90
9371;DHT22;4725;48.384;8.984;2023-02-15T08:08:29;-0.40;99.90
9371;DHT22;4725;48.384;8.984;2023-02-15T08:11:05;-0.20;99.90
9371;DHT22;4725;48.384;8.984;2023-02-15T08:13:53;0.10;99.90
9371;DHT22;4725;48.384;8.984;2023-02-15T08:16:24;0.70;99.90
9371;DHT22;4725;48.384;8.984;2023-02-15T08:18:51;0.70;99.90
9371;DHT22;4725;48.384;8.984;2023-02-15T08:21:18;1.00;99.90
9371;DHT22;4725;48.384;8.984;2023-02-15T08:23:45;1.40;99.90
9371;DHT22;4725;48.384;8.984;2023-02-15T08:26:13;1.60;99.90
9371;DHT22;4725;48.384;8.984;2023-02-15T08:28:40;1.70;99.90
9371;DHT22;4725;48.384;8.984;2023-02-15T08:31:10;1.90;99.90
9371;DHT22;4725;48.384;8.984;2023-02-15T08:33:38;2.20;99.90
9371;DHT22;4725;48.384;8.984;2023-02-15T08:36:07;2.30;99.90
9371;DHT22;4725;48.384;8.984;2023-02-15T08:38:35;2.40;99.90
9371;DHT22;4725;48.384;8.984;2023-02-15T08:41:09;2.50;99.90
9371;DHT22;4725;48.384;8.984;2023-02-15T08:43:37;2.60;99.90
9371;DHT22;4725;48.384;8.984;2023-02-15T08:46:04;2.70;99.90
9371;DHT22;4725;48.384;8.984;2023-02-15T08:48:32;2.70;99.90
9371;DHT22;4725;48.384;8.984;2023-02-15T08:51:05;2.90;99.90
9371;DHT22;4725;48.384;8.984;2023-02-15T08:53:32;2.90;99.90
9371;DHT22;4725;48.384;8.984;2023-02-15T08:55:59;3.30;99.90
9371;DHT22;4725;48.384;8.984;2023-02-15T09:00:53;3.60;99.90
9371;DHT22;4725;48.384;8.984;2023-02-15T09:03:20;3.80;99.90
9371;DHT22;4725;48.384;8.984;2023-02-15T09:05:48;4.00;99.90
9371;DHT22;4725;48.384;8.984;2023-02-15T09:08:16;4.30;99.90
9371;DHT22;4725;48.384;8.984;2023-02-15T09:10:42;4.30;99.90
9371;DHT22;4725;48.384;8.984;2023-02-15T09:13:10;4.50;99.90
9371;DHT22;4725;48.384;8.984;2023-02-15T09:15:38;4.70;99.90
9371;DHT22;4725;48.384;8.984;2023-02-15T09:18:05;5.00;99.90
9371;DHT22;4725;48.384;8.984;2023-02-15T09:20:35;5.10;99.90
9371;DHT22;4725;48.384;8.984;2023-02-15T09:23:03;5.40;99.90
9371;DHT22;4725;48.384;8.984;2023-02-15T09:25:30;5.50;99.90
9371;DHT22;4725;48.384;8.984;2023-02-15T09:30:24;5.90;99.90
9371;DHT22;4725;48.384;8.984;2023-02-15T09:32:51;6.20;99.90
9371;DHT22;4725;48.384;8.984;2023-02-15T09:35:18;6.30;99.90
9371;DHT22;4725;48.384;8.984;2023-02-15T09:37:45;6.50;99.90
9371;DHT22;4725;48.384;8.984;2023-02-15T09:40:15;6.80;99.90
9371;DHT22;4725;48.384;8.984;2023-02-15T09:43:07;7.00;99.90
9371;DHT22;4725;48.384;8.984;2023-02-15T09:45:57;7.60;99.90
9371;DHT22;4725;48.384;8.984;2023-02-15T09:48:39;7.70;99.90
9371;DHT22;4725;48.384;8.984;2023-02-15T09:51:22;7.70;99.90
9371;DHT22;4725;48.384;8.984;2023-02-15T09:54:05;7.90;99.90
9371;DHT22;4725;48.384;8.984;2023-02-15T09:56:42;8.10;99.90
9371;DHT22;4725;48.384;8.984;2023-02-15T09:59:17;8.40;99.90
9371;DHT22;4725;48.384;8.984;2023-02-15T10:01:54;8.40;99.90
9371;DHT22;4725;48.384;8.984;2023-02-15T10:04:40;8.60;99.90
9371;DHT22;4725;48.384;8.984;2023-02-15T10:07:18;9.00;99.90
9371;DHT22;4725;48.384;8.984;2023-02-15T10:09:54;9.10;99.90
9371;DHT22;4725;48.384;8.984;2023-02-15T10:12:36;9.30;99.90
9371;DHT22;4725;48.384;8.984;2023-02-15T10:15:31;9.60;99.30
9371;DHT22;4725;48.384;8.984;2023-02-15T10:18:16;10.00;97.70
9371;DHT22;4725;48.384;8.984;2023-02-15T10:20:52;10.10;97.50
9371;DHT22;4725;48.384;8.984;2023-02-15T10:23:43;10.50;97.40
9371;DHT22;4725;48.384;8.984;2023-02-15T10:26:17;10.90;95.50
9371;DHT22;4725;48.384;8.984;2023-02-15T10:28:48;11.20;96.60
9371;DHT22;4725;48.384;8.984;2023-02-15T10:31:23;11.70;94.00
9371;DHT22;4725;48.384;8.984;2023-02-15T10:34:00;11.70;94.40
9371;DHT22;4725;48.384;8.984;2023-02-15T10:36:42;12.20;93.60
9371;DHT22;4725;48.384;8.984;2023-02-15T10:39:16;12.30;94.20
9371;DHT22;4725;48.384;8.984;2023-02-15T10:41:52;12.80;92.90
9371;DHT22;4725;48.384;8.984;2023-02-15T10:44:33;12.80;92.80
9371;DHT22;4725;48.384;8.984;2023-02-15T10:50:17;12.80;93.40
9371;DHT22;4725;48.384;8.984;2023-02-15T10:53:14;13.20;93.10
9371;DHT22;4725;48.384;8.984;2023-02-15T10:55:52;13.60;92.50
9371;DHT22;4725;48.384;8.984;2023-02-15T10:58:29;14.10;92.40
9371;DHT22;4725;48.384;8.984;2023-02-15T11:01:05;14.30;91.20
9371;DHT22;4725;48.384;8.984;2023-02-15T11:03:49;14.40;91.60
9371;DHT22;4725;48.384;8.984;2023-02-15T11:06:22;15.00;91.00
9371;DHT22;4725;48.384;8.984;2023-02-15T11:08:55;15.00;91.40
9371;DHT22;4725;48.384;8.984;2023-02-15T11:11:26;15.10;88.60
9371;DHT22;4725;48.384;8.984;2023-02-15T11:13:58;15.10;88.60
9371;DHT22;4725;48.384;8.984;2023-02-15T11:16:30;15.70;88.40
9371;DHT22;4725;48.384;8.984;2023-02-15T11:19:01;15.70;88.60
9371;DHT22;4725;48.384;8.984;2023-02-15T11:21:33;16.00;86.40
9371;DHT22;4725;48.384;8.984;2023-02-15T11:24:10;16.30;85.90
9371;DHT22;4725;48.384;8.984;2023-02-15T11:26:40;16.40;83.80
9371;DHT22;4725;48.384;8.984;2023-02-15T11:29:13;16.60;82.70
9371;DHT22;4725;48.384;8.984;2023-02-15T11:31:44;16.60;84.50
9371;DHT22;4725;48.384;8.984;2023-02-15T11:34:15;17.20;85.30
9371;DHT22;4725;48.384;8.984;2023-02-15T11:36:45;17.60;81.10
9371;DHT22;4725;48.384;8.984;2023-02-15T11:39:16;18.10;82.10
9371;DHT22;4725;48.384;8.984;2023-02-15T11:41:46;18.40;83.20
9371;DHT22;4725;48.384;8.984;2023-02-15T11:44:21;19.60;78.20
9371;DHT22;4725;48.384;8.984;2023-02-15T11:46:50;19.60;76.10
9371;DHT22;4725;48.384;8.984;2023-02-15T11:49:24;19.60;76.80
9371;DHT22;4725;48.384;8.984;2023-02-15T11:51:55;19.70;76.80
9371;DHT22;4725;48.384;8.984;2023-02-15T11:54:26;19.50;75.80
9371;DHT22;4725;48.384;8.984;2023-02-15T11:56:56;19.30;74.70
9371;DHT22;4725;48.384;8.984;2023-02-15T11:59:29;19.90;76.30
9371;DHT22;4725;48.384;8.984;2023-02-15T12:01:57;19.60;78.40
9371;DHT22;4725;48.384;8.984;2023-02-15T12:04:28;19.90;77.60
9371;DHT22;4725;48.384;8.984;2023-02-15T12:06:59;19.80;77.60
9371;DHT22;4725;48.384;8.984;2023-02-15T12:09:32;19.80;77.70
9371;DHT22;4725;48.384;8.984;2023-02-15T12:12:19;19.70;77.00
9371;DHT22;4725;48.384;8.984;2023-02-15T12:14:47;19.10;73.40
9371;DHT22;4725;48.384;8.984;2023-02-15T12:17:17;19.40;75.70
9371;DHT22;4725;48.384;8.984;2023-02-15T12:19:44;19.50;74.70
9371;DHT22;4725;48.384;8.984;2023-02-15T12:22:20;19.80;73.80
9371;DHT22;4725;48.384;8.984;2023-02-15T12:24:51;20.10;70.70
9371;DHT22;4725;48.384;8.984;2023-02-15T12:27:20;20.20;72.20
9371;DHT22;4725;48.384;8.984;2023-02-15T12:29:50;20.70;71.10
9371;DHT22;4725;48.384;8.984;2023-02-15T12:32:23;21.50;68.10
9371;DHT22;4725;48.384;8.984;2023-02-15T12:34:51;21.60;67.30
9371;DHT22;4725;48.384;8.984;2023-02-15T12:37:25;22.10;65.30
9371;DHT22;4725;48.384;8.984;2023-02-15T12:39:55;23.10;64.00
9371;DHT22;4725;48.384;8.984;2023-02-15T12:42:23;21.90;66.30
9371;DHT22;4725;48.384;8.984;2023-02-15T12:44:56;22.60;68.60
9371;DHT22;4725;48.384;8.984;2023-02-15T12:47:25;22.00;70.70
9371;DHT22;4725;48.384;8.984;2023-02-15T12:50:21;21.50;71.10
9371;DHT22;4725;48.384;8.984;2023-02-15T12:52:50;21.80;74.80
9371;DHT22;4725;48.384;8.984;2023-02-15T12:55:27;22.60;72.10
9371;DHT22;4725;48.384;8.984;2023-02-15T12:58:12;21.90;74.10
9371;DHT22;4725;48.384;8.984;2023-02-15T13:00:42;21.50;74.20
9371;DHT22;4725;48.384;8.984;2023-02-15T13:03:17;20.90;76.70
9371;DHT22;4725;48.384;8.984;2023-02-15T13:05:46;21.70;73.80
9371;DHT22;4725;48.384;8.984;2023-02-15T13:08:16;21.40;76.40
9371;DHT22;4725;48.384;8.984;2023-02-15T13:10:53;21.80;77.40
9371;DHT22;4725;48.384;8.984;2023-02-15T13:13:24;21.60;76.00
9371;DHT22;4725;48.384;8.984;2023-02-15T13:15:56;21.60;77.20
9371;DHT22;4725;48.384;8.984;2023-02-15T13:18:30;21.40;75.60
9371;DHT22;4725;48.384;8.984;2023-02-15T13:21:10;21.90;75.90
9371;DHT22;4725;48.384;8.984;2023-02-15T13:23:39;22.10;75.00
9371;DHT22;4725;48.384;8.984;2023-02-15T13:26:14;22.00;75.60
9371;DHT22;4725;48.384;8.984;2023-02-15T13:28:45;21.80;73.20
9371;DHT22;4725;48.384;8.984;2023-02-15T13:31:14;22.10;72.80
9371;DHT22;4725;48.384;8.984;2023-02-15T13:33:45;22.40;73.10
9371;DHT22;4725;48.384;8.984;2023-02-15T13:36:18;22.30;72.30
9371;DHT22;4725;48.384;8.984;2023-02-15T13:38:54;23.20;71.20
9371;DHT22;4725;48.384;8.984;2023-02-15T13:41:27;23.00;70.40
9371;DHT22;4725;48.384;8.984;2023-02-15T13:44:03;22.20;71.90
9371;DHT22;4725;48.384;8.984;2023-02-15T13:46:46;22.00;70.40
9371;DHT22;4725;48.384;8.984;2023-02-15T13:49:29;21.90;71.80
9371;DHT22;4725;48.384;8.984;2023-02-15T13:52:07;21.90;72.20
9371;DHT22;4725;48.384;8.984;2023-02-15T13:54:53;22.20;72.00
9371;DHT22;4725;48.384;8.984;2023-02-15T13:57:40;22.20;72.90
9371;DHT22;4725;48.384;8.984;2023-02-15T14:00:17;22.30;71.90
9371;DHT22;4725;48.384;8.984;2023-02-15T14:06:09;22.70;69.50
9371;DHT22;4725;48.384;8.984;2023-02-15T14:08:49;21.60;71.30
9371;DHT22;4725;48.384;8.984;2023-02-15T14:11:24;21.80;72.20
9371;DHT22;4725;48.384;8.984;2023-02-15T14:14:11;22.30;70.00
9371;DHT22;4725;48.384;8.984;2023-02-15T14:16:47;22.50;68.70
9371;DHT22;4725;48.384;8.984;2023-02-15T14:19:20;22.80;65.90
9371;DHT22;4725;48.384;8.984;2023-02-15T14:21:54;22.40;65.70
9371;DHT22;4725;48.384;8.984;2023-02-15T14:24:30;22.60;64.40
9371;DHT22;4725;48.384;8.984;2023-02-15T14:27:07;22.30;64.20
9371;DHT22;4725;48.384;8.984;2023-02-15T14:29:47;22.00;60.60
9371;DHT22;4725;48.384;8.984;2023-02-15T14:32:20;21.70;62.60
9371;DHT22;4725;48.384;8.984;2023-02-15T14:34:51;21.60;65.70
9371;DHT22;4725;48.384;8.984;2023-02-15T14:37:25;21.50;65.50
9371;DHT22;4725;48.384;8.984;2023-02-15T14:40:00;21.40;64.40
9371;DHT22;4725;48.384;8.984;2023-02-15T14:43:04;22.10;64.20
9371;DHT22;4725;48.384;8.984;2023-02-15T14:45:38;21.90;65.80
9371;DHT22;4725;48.384;8.984;2023-02-15T14:48:12;22.20;62.50
9371;DHT22;4725;48.384;8.984;2023-02-15T14:50:44;22.30;59.80
9371;DHT22;4725;48.384;8.984;2023-02-15T14:53:34;21.40;59.70
9371;DHT22;4725;48.384;8.984;2023-02-15T14:56:22;21.30;60.70
9371;DHT22;4725;48.384;8.984;2023-02-15T14:58:58;20.90;62.70
9371;DHT22;4725;48.384;8.984;2023-02-15T15:01:26;21.10;65.80
9371;DHT22;4725;48.384;8.984;2023-02-15T15:03:56;21.30;64.50
9371;DHT22;4725;48.384;8.984;2023-02-15T15:06:26;21.30;64.80
9371;DHT22;4725;48.384;8.984;2023-02-15T15:08:59;21.30;64.90
9371;DHT22;4725;48.384;8.984;2023-02-15T15:11:48;21.00;64.00
9371;DHT22;4725;48.384;8.984;2023-02-15T15:14:38;21.10;64.30
9371;DHT22;4725;48.384;8.984;2023-02-15T15:17:08;21.30;64.00
9371;DHT22;4725;48.384;8.984;2023-02-15T15:20:10;21.30;65.10
9371;DHT22;4725;48.384;8.984;2023-02-15T15:22:42;21.50;63.30
9371;DHT22;4725;48.384;8.984;2023-02-15T15:27:54;21.00;66.80
9371;DHT22;4725;48.384;8.984;2023-02-15T15:33:38;20.90;68.40
9371;DHT22;4725;48.384;8.984;2023-02-15T15:39:47;20.50;68.50
9371;DHT22;4725;48.384;8.984;2023-02-15T15:42:32;19.30;70.20
9371;DHT22;4725;48.384;8.984;2023-02-15T15:45:30;19.00;70.70
9371;DHT22;4725;48.384;8.984;2023-02-15T15:48:27;15.60;76.50
9371;DHT22;4725;48.384;8.984;2023-02-15T15:50:57;15.40;77.10
9371;DHT22;4725;48.384;8.984;2023-02-15T15:53:28;14.70;80.30
9371;DHT22;4725;48.384;8.984;2023-02-15T15:56:00;13.80;82.30
9371;DHT22;4725;48.384;8.984;2023-02-15T15:58:30;13.00;84.30
9371;DHT22;4725;48.384;8.984;2023-02-15T16:01:03;12.60;85.30
9371;DHT22;4725;48.384;8.984;2023-02-15T16:03:30;11.70;88.10
9371;DHT22;4725;48.384;8.984;2023-02-15T16:05:57;11.70;88.90
9371;DHT22;4725;48.384;8.984;2023-02-15T16:08:30;11.10;90.30
9371;DHT22;4725;48.384;8.984;2023-02-15T16:10:58;11.00;90.60
9371;DHT22;4725;48.384;8.984;2023-02-15T16:13:26;10.80;91.30
9371;DHT22;4725;48.384;8.984;2023-02-15T16:15:55;10.50;91.40
9371;DHT22;4725;48.384;8.984;2023-02-15T16:18:24;10.30;91.40
9371;DHT22;4725;48.384;8.984;2023-02-15T16:20:54;10.20;91.80
9371;DHT22;4725;48.384;8.984;2023-02-15T16:23:39;10.00;92.20
9371;DHT22;4725;48.384;8.984;2023-02-15T16:26:17;9.80;92.70
9371;DHT22;4725;48.384;8.984;2023-02-15T16:28:49;9.60;92.50
9371;DHT22;4725;48.384;8.984;2023-02-15T16:31:19;9.40;92.90
9371;DHT22;4725;48.384;8.984;2023-02-15T16:33:51;9.20;94.00
9371;DHT22;4725;48.384;8.984;2023-02-15T16:36:24;8.80;95.60
9371;DHT22;4725;48.384;8.984;2023-02-15T16:39:07;8.60;95.30
9371;DHT22;4725;48.384;8.984;2023-02-15T16:41:35;8.50;96.00
9371;DHT22;4725;48.384;8.984;2023-02-15T16:44:06;8.30;95.90
9371;DHT22;4725;48.384;8.984;2023-02-15T16:46:38;7.90;97.90
9371;DHT22;4725;48.384;8.984;2023-02-15T16:49:14;7.90;98.00
9371;DHT22;4725;48.384;8.984;2023-02-15T16:51:43;7.70;98.20
9371;DHT22;4725;48.384;8.984;2023-02-15T16:54:17;7.40;98.40
9371;DHT22;4725;48.384;8.984;2023-02-15T16:56:45;7.00;98.70
9371;DHT22;4725;48.384;8.984;2023-02-15T16:59:22;7.00;99.90
9371;DHT22;4725;48.384;8.984;2023-02-15T17:01:55;6.90;99.90
9371;DHT22;4725;48.384;8.984;2023-02-15T17:04:29;6.80;99.90
9371;DHT22;4725;48.384;8.984;2023-02-15T17:07:01;6.40;99.90
9371;DHT22;4725;48.384;8.984;2023-02-15T17:09:30;6.40;99.90